ADDS METAR Data INFO
IDs: Format: Raw Decoded Include TAF

Data at: 0904 UTC 20 Oct 2017

KMOB 200856Z AUTO 04006KT 10SM CLR 17/14 A3016 RMK AO2 SLP212 T01670144 58009
KMOB 200756Z AUTO 03005KT 10SM CLR 17/14 A3018 RMK AO2 SLP216 T01670144
KMOB 200656Z AUTO 04005KT 10SM CLR 17/14 A3019 RMK AO2 SLP220 T01670144
KMOB 200556Z AUTO 04003KT 10SM CLR 17/14 A3019 RMK AO2 SLP221 T01720144 10217 20172 402830139 56004
KMOB 200456Z AUTO 03005KT 10SM CLR 18/15 A3019 RMK AO2 SLP221 T01780150
KMOB 200356Z 04006KT 10SM CLR 18/16 A3020 RMK AO2 SLP223 T01830156
KMOB 200256Z 03006KT 10SM CLR 19/16 A3020 RMK AO2 SLP225 T01940156 51013
KMOB 200156Z 04006KT 10SM CLR 20/16 A3019 RMK AO2 SLP220 T02000161
KMOB 200056Z 02005KT 10SM CLR 21/16 A3018 RMK AO2 SLP217 T02060161
KMOB 192356Z 02005KT 10SM FEW060 SCT250 22/16 A3016 RMK AO2 SLP212 T02170161 10283 20217 53003
KMOB 192256Z 03006KT 10SM FEW060 SCT250 24/16 A3015 RMK AO2 SLP208 T02440161
KMOB 192156Z 04007KT 10SM FEW050 SCT250 26/16 A3015 RMK AO2 SLP206 T02610156
KMOB 192056Z 04007KT 10SM FEW040 SCT250 27/15 A3016 RMK AO2 SLP209 T02720150 56019
KMOB 191956Z 08005KT 10SM FEW030 SCT250 27/16 A3016 RMK AO2 SLP211 T02720156
KMOB 191856Z 10007KT 10SM BKN040 BKN250 27/15 A3018 RMK AO2 SLP219 T02720150
KMOB 191756Z VRB05KT 10SM FEW030 FEW250 26/16 A3021 RMK AO2 SLP228 T02610161 10267 20144 58010
KMOB 191656Z 07009KT 10SM FEW050 FEW250 26/16 A3023 RMK AO2 SLP235 T02560156
KMOB 191556Z 06007KT 030V100 10SM FEW050 FEW250 24/17 A3024 RMK AO2 SLP239 T02440172
KMOB 191456Z 04006KT 10SM FEW050 FEW250 21/16 A3024 RMK AO2 SLP238 T02110156 53017
KMOB 191356Z 06005KT 10SM FEW040 FEW250 18/14 A3023 RMK AO2 SLP234 T01830139
KMOB 191256Z 05007KT 10SM FEW040 FEW250 16/12 A3020 RMK AO2 SLP226 T01610122
KMOB 191156Z 03003KT 10SM FEW040 SCT250 14/12 A3019 RMK AO2 SLP222 T01440117 10156 20139 51012 $
KMOB 191056Z 04004KT 7SM SCT042 15/12 A3019 RMK AO2 SLP220 T01500117 $
KMOB 190956Z AUTO 00000KT 10SM CLR 14/12 A3017 RMK AO2 SLP213 T01440117
KMOB 190856Z AUTO 00000KT 10SM CLR 14/12 A3016 RMK AO2 SLP209 T01440117 56012
KMOB 190756Z AUTO 05005KT 10SM CLR 15/12 A3017 RMK AO2 SLP213 T01500122
KMOB 190656Z AUTO 07004KT 10SM CLR 15/13 A3018 RMK AO2 SLP217 T01500128
KMOB 190556Z AUTO 02006KT 10SM CLR 16/13 A3019 RMK AO2 SLP221 T01560128 10189 20139 402440117 56010
KMOB 190456Z AUTO 03005KT 10SM CLR 14/13 A3020 RMK AO2 SLP224 T01440128
KMOB 190356Z 03004KT 10SM CLR 16/13 A3021 RMK AO2 SLP228 T01610128
KMOB 190256Z 01003KT 10SM CLR 15/13 A3022 RMK AO2 SLP232 T01500128 51013
KMOB 190156Z 00000KT 10SM CLR 14/13 A3021 RMK AO2 SLP228 T01440128
KMOB 190056Z 02003KT 10SM FEW250 16/13 A3020 RMK AO2 SLP225 T01610128
KMOB 182356Z 06004KT 10SM SCT250 18/13 A3018 RMK AO2 SLP220 T01780128 10244 20178 53006
KMOB 182256Z 04004KT 10SM SCT250 22/12 A3017 RMK AO2 SLP214 T02170117
KMOB 182156Z 05006KT 10SM FEW250 24/11 A3016 RMK AO2 SLP212 T02390106